sensor_id;sensor_type;location;lat;lon;timestamp;P1;durP1;ratioP1;P2;durP2;ratioP2
60851;SDS011;48553;50.766;2.900;2023-05-10T00:00:17;12.43;;;6.00;;
60851;SDS011;48553;50.766;2.900;2023-05-10T00:03:17;15.02;;;5.93;;
60851;SDS011;48553;50.766;2.900;2023-05-10T00:06:18;12.25;;;5.72;;
60851;SDS011;48553;50.766;2.900;2023-05-10T00:09:18;12.60;;;5.43;;
60851;SDS011;48553;50.766;2.900;2023-05-10T00:12:19;11.90;;;5.20;;
60851;SDS011;48553;50.766;2.900;2023-05-10T00:15:19;13.00;;;5.03;;
60851;SDS011;48553;50.766;2.900;2023-05-10T00:18:20;12.68;;;5.60;;
60851;SDS011;48553;50.766;2.900;2023-05-10T00:21:21;11.63;;;5.72;;
60851;SDS011;48553;50.766;2.900;2023-05-10T00:24:21;15.48;;;5.80;;
60851;SDS011;48553;50.766;2.900;2023-05-10T00:27:22;16.48;;;6.47;;
60851;SDS011;48553;50.766;2.900;2023-05-10T00:30:22;15.60;;;6.80;;
60851;SDS011;48553;50.766;2.900;2023-05-10T00:33:23;15.25;;;6.45;;
60851;SDS011;48553;50.766;2.900;2023-05-10T00:36:23;16.65;;;6.82;;
60851;SDS011;48553;50.766;2.900;2023-05-10T00:39:24;16.63;;;7.07;;
60851;SDS011;48553;50.766;2.900;2023-05-10T00:42:26;18.63;;;8.35;;
60851;SDS011;48553;50.766;2.900;2023-05-10T00:45:26;21.00;;;8.38;;
60851;SDS011;48553;50.766;2.900;2023-05-10T00:48:28;21.38;;;8.60;;
60851;SDS011;48553;50.766;2.900;2023-05-10T00:51:29;20.00;;;8.77;;
60851;SDS011;48553;50.766;2.900;2023-05-10T00:54:31;22.08;;;9.65;;
60851;SDS011;48553;50.766;2.900;2023-05-10T00:57:31;20.75;;;9.20;;
60851;SDS011;48553;50.766;2.900;2023-05-10T01:00:33;18.80;;;9.25;;
60851;SDS011;48553;50.766;2.900;2023-05-10T01:03:33;19.70;;;9.27;;
60851;SDS011;48553;50.766;2.900;2023-05-10T01:06:34;20.85;;;9.85;;
60851;SDS011;48553;50.766;2.900;2023-05-10T01:09:35;22.75;;;9.55;;
60851;SDS011;48553;50.766;2.900;2023-05-10T01:12:36;21.30;;;9.60;;
60851;SDS011;48553;50.766;2.900;2023-05-10T01:15:39;22.48;;;9.38;;
60851;SDS011;48553;50.766;2.900;2023-05-10T01:18:40;17.27;;;9.10;;
60851;SDS011;48553;50.766;2.900;2023-05-10T01:21:49;18.88;;;8.70;;
60851;SDS011;48553;50.766;2.900;2023-05-10T01:35:03;15.05;;;6.60;;
60851;SDS011;48553;50.766;2.900;2023-05-10T01:41:18;15.45;;;7.38;;
60851;SDS011;48553;50.766;2.900;2023-05-10T01:48:11;19.00;;;7.22;;
60851;SDS011;48553;50.766;2.900;2023-05-10T01:51:17;21.42;;;7.72;;
60851;SDS011;48553;50.766;2.900;2023-05-10T01:54:22;22.10;;;7.68;;
60851;SDS011;48553;50.766;2.900;2023-05-10T01:57:25;20.15;;;7.45;;
60851;SDS011;48553;50.766;2.900;2023-05-10T02:00:27;15.77;;;6.70;;
60851;SDS011;48553;50.766;2.900;2023-05-10T02:03:29;19.15;;;7.03;;
60851;SDS011;48553;50.766;2.900;2023-05-10T02:06:32;15.77;;;6.25;;
60851;SDS011;48553;50.766;2.900;2023-05-10T02:09:34;17.25;;;5.95;;
60851;SDS011;48553;50.766;2.900;2023-05-10T02:12:35;18.38;;;6.43;;
60851;SDS011;48553;50.766;2.900;2023-05-10T02:15:39;14.35;;;5.82;;
60851;SDS011;48553;50.766;2.900;2023-05-10T02:18:41;15.82;;;5.55;;
60851;SDS011;48553;50.766;2.900;2023-05-10T02:21:42;15.43;;;5.70;;
60851;SDS011;48553;50.766;2.900;2023-05-10T02:24:44;14.63;;;6.00;;
60851;SDS011;48553;50.766;2.900;2023-05-10T02:27:47;17.15;;;5.60;;
60851;SDS011;48553;50.766;2.900;2023-05-10T02:30:48;14.23;;;5.00;;
60851;SDS011;48553;50.766;2.900;2023-05-10T02:33:51;14.23;;;5.43;;
60851;SDS011;48553;50.766;2.900;2023-05-10T02:36:52;14.15;;;5.35;;
60851;SDS011;48553;50.766;2.900;2023-05-10T02:39:53;16.50;;;5.35;;
60851;SDS011;48553;50.766;2.900;2023-05-10T02:42:55;12.82;;;4.95;;
60851;SDS011;48553;50.766;2.900;2023-05-10T02:45:57;16.23;;;5.05;;
60851;SDS011;48553;50.766;2.900;2023-05-10T02:48:57;13.02;;;5.05;;
60851;SDS011;48553;50.766;2.900;2023-05-10T02:51:59;11.75;;;4.00;;
60851;SDS011;48553;50.766;2.900;2023-05-10T02:55:02;19.23;;;4.73;;
60851;SDS011;48553;50.766;2.900;2023-05-10T02:58:05;10.98;;;4.40;;
60851;SDS011;48553;50.766;2.900;2023-05-10T03:01:05;12.73;;;4.60;;
60851;SDS011;48553;50.766;2.900;2023-05-10T03:04:07;11.02;;;4.00;;
60851;SDS011;48553;50.766;2.900;2023-05-10T03:07:07;13.65;;;4.60;;
60851;SDS011;48553;50.766;2.900;2023-05-10T03:10:08;11.57;;;4.07;;
60851;SDS011;48553;50.766;2.900;2023-05-10T03:13:19;16.40;;;4.18;;
60851;SDS011;48553;50.766;2.900;2023-05-10T03:16:45;10.20;;;3.95;;
60851;SDS011;48553;50.766;2.900;2023-05-10T03:19:56;11.50;;;3.78;;
60851;SDS011;48553;50.766;2.900;2023-05-10T03:23:00;12.13;;;4.03;;
60851;SDS011;48553;50.766;2.900;2023-05-10T03:26:12;14.45;;;4.22;;
60851;SDS011;48553;50.766;2.900;2023-05-10T03:29:17;10.35;;;4.45;;
60851;SDS011;48553;50.766;2.900;2023-05-10T03:32:20;11.05;;;4.40;;
60851;SDS011;48553;50.766;2.900;2023-05-10T03:35:20;10.73;;;3.85;;
60851;SDS011;48553;50.766;2.900;2023-05-10T03:38:21;14.27;;;4.78;;
60851;SDS011;48553;50.766;2.900;2023-05-10T03:41:21;13.05;;;4.57;;
60851;SDS011;48553;50.766;2.900;2023-05-10T03:44:21;12.52;;;4.28;;
60851;SDS011;48553;50.766;2.900;2023-05-10T03:47:22;10.30;;;4.22;;
60851;SDS011;48553;50.766;2.900;2023-05-10T03:50:22;13.48;;;4.75;;
60851;SDS011;48553;50.766;2.900;2023-05-10T03:53:23;12.82;;;5.05;;
60851;SDS011;48553;50.766;2.900;2023-05-10T03:56:23;11.30;;;5.40;;
60851;SDS011;48553;50.766;2.900;2023-05-10T03:59:24;14.73;;;5.85;;
60851;SDS011;48553;50.766;2.900;2023-05-10T04:02:24;16.08;;;6.03;;
60851;SDS011;48553;50.766;2.900;2023-05-10T04:05:24;15.25;;;5.72;;
60851;SDS011;48553;50.766;2.900;2023-05-10T04:08:25;16.02;;;6.70;;
60851;SDS011;48553;50.766;2.900;2023-05-10T04:11:26;13.60;;;6.40;;
60851;SDS011;48553;50.766;2.900;2023-05-10T04:14:26;14.55;;;6.95;;
60851;SDS011;48553;50.766;2.900;2023-05-10T04:17:27;13.88;;;6.65;;
60851;SDS011;48553;50.766;2.900;2023-05-10T04:20:27;16.30;;;7.18;;
60851;SDS011;48553;50.766;2.900;2023-05-10T04:23:27;16.60;;;7.60;;
60851;SDS011;48553;50.766;2.900;2023-05-10T04:26:28;14.27;;;7.20;;
60851;SDS011;48553;50.766;2.900;2023-05-10T04:29:28;15.82;;;7.28;;
60851;SDS011;48553;50.766;2.900;2023-05-10T04:32:28;18.23;;;7.68;;
60851;SDS011;48553;50.766;2.900;2023-05-10T04:35:29;16.55;;;7.55;;
60851;SDS011;48553;50.766;2.900;2023-05-10T04:38:29;18.08;;;7.40;;
60851;SDS011;48553;50.766;2.900;2023-05-10T04:41:30;17.05;;;7.55;;
60851;SDS011;48553;50.766;2.900;2023-05-10T04:44:31;15.13;;;7.03;;
60851;SDS011;48553;50.766;2.900;2023-05-10T04:47:32;16.85;;;7.03;;
60851;SDS011;48553;50.766;2.900;2023-05-10T04:50:32;15.98;;;6.57;;
60851;SDS011;48553;50.766;2.900;2023-05-10T04:53:33;15.98;;;6.00;;
60851;SDS011;48553;50.766;2.900;2023-05-10T04:56:34;12.23;;;5.70;;
60851;SDS011;48553;50.766;2.900;2023-05-10T04:59:35;11.60;;;5.47;;
60851;SDS011;48553;50.766;2.900;2023-05-10T05:02:36;12.30;;;5.20;;
60851;SDS011;48553;50.766;2.900;2023-05-10T05:05:37;19.80;;;5.65;;
60851;SDS011;48553;50.766;2.900;2023-05-10T05:08:37;14.50;;;5.53;;
60851;SDS011;48553;50.766;2.900;2023-05-10T05:11:38;14.30;;;5.53;;
60851;SDS011;48553;50.766;2.900;2023-05-10T05:14:38;18.35;;;5.93;;
60851;SDS011;48553;50.766;2.900;2023-05-10T05:17:39;15.57;;;5.30;;
60851;SDS011;48553;50.766;2.900;2023-05-10T05:20:40;19.92;;;5.75;;
60851;SDS011;48553;50.766;2.900;2023-05-10T05:23:40;15.18;;;5.72;;
60851;SDS011;48553;50.766;2.900;2023-05-10T05:26:40;21.25;;;5.72;;
60851;SDS011;48553;50.766;2.900;2023-05-10T05:29:41;17.42;;;5.75;;
60851;SDS011;48553;50.766;2.900;2023-05-10T05:32:41;15.40;;;5.78;;
60851;SDS011;48553;50.766;2.900;2023-05-10T05:35:42;17.30;;;6.40;;
60851;SDS011;48553;50.766;2.900;2023-05-10T05:38:50;19.98;;;6.65;;
60851;SDS011;48553;50.766;2.900;2023-05-10T05:41:51;21.65;;;6.90;;
60851;SDS011;48553;50.766;2.900;2023-05-10T05:44:51;20.85;;;6.50;;
60851;SDS011;48553;50.766;2.900;2023-05-10T05:47:51;16.20;;;6.72;;
60851;SDS011;48553;50.766;2.900;2023-05-10T05:50:55;17.60;;;6.43;;
60851;SDS011;48553;50.766;2.900;2023-05-10T05:53:59;17.65;;;6.95;;
60851;SDS011;48553;50.766;2.900;2023-05-10T05:57:00;18.75;;;6.90;;
60851;SDS011;48553;50.766;2.900;2023-05-10T06:00:00;18.05;;;6.72;;
60851;SDS011;48553;50.766;2.900;2023-05-10T06:03:02;19.75;;;6.93;;
60851;SDS011;48553;50.766;2.900;2023-05-10T06:06:03;20.08;;;7.18;;
60851;SDS011;48553;50.766;2.900;2023-05-10T06:09:04;24.80;;;7.85;;
60851;SDS011;48553;50.766;2.900;2023-05-10T06:12:04;19.90;;;7.60;;
60851;SDS011;48553;50.766;2.900;2023-05-10T06:15:05;22.60;;;7.47;;
60851;SDS011;48553;50.766;2.900;2023-05-10T06:18:06;22.95;;;8.00;;
60851;SDS011;48553;50.766;2.900;2023-05-10T06:21:06;22.98;;;7.85;;
60851;SDS011;48553;50.766;2.900;2023-05-10T06:24:07;26.88;;;8.30;;
60851;SDS011;48553;50.766;2.900;2023-05-10T06:27:08;25.42;;;8.80;;
60851;SDS011;48553;50.766;2.900;2023-05-10T06:30:08;24.48;;;8.35;;
60851;SDS011;48553;50.766;2.900;2023-05-10T06:33:09;22.30;;;8.38;;
60851;SDS011;48553;50.766;2.900;2023-05-10T06:36:09;19.17;;;7.50;;
60851;SDS011;48553;50.766;2.900;2023-05-10T06:39:10;23.33;;;8.07;;
60851;SDS011;48553;50.766;2.900;2023-05-10T06:42:12;20.67;;;8.02;;
60851;SDS011;48553;50.766;2.900;2023-05-10T06:45:12;23.98;;;8.63;;
60851;SDS011;48553;50.766;2.900;2023-05-10T06:48:14;20.25;;;7.47;;
60851;SDS011;48553;50.766;2.900;2023-05-10T06:51:14;26.00;;;8.10;;
60851;SDS011;48553;50.766;2.900;2023-05-10T06:54:15;22.13;;;8.25;;
60851;SDS011;48553;50.766;2.900;2023-05-10T06:57:15;21.25;;;7.78;;
60851;SDS011;48553;50.766;2.900;2023-05-10T07:00:16;26.20;;;8.15;;
60851;SDS011;48553;50.766;2.900;2023-05-10T07:03:17;19.75;;;7.65;;
60851;SDS011;48553;50.766;2.900;2023-05-10T07:06:18;18.55;;;8.02;;
60851;SDS011;48553;50.766;2.900;2023-05-10T07:09:18;21.05;;;8.40;;
60851;SDS011;48553;50.766;2.900;2023-05-10T07:12:19;21.70;;;8.10;;
60851;SDS011;48553;50.766;2.900;2023-05-10T07:15:19;24.60;;;8.48;;
60851;SDS011;48553;50.766;2.900;2023-05-10T07:18:20;22.40;;;8.05;;
60851;SDS011;48553;50.766;2.900;2023-05-10T07:21:20;21.27;;;8.07;;
60851;SDS011;48553;50.766;2.900;2023-05-10T07:24:23;19.48;;;8.25;;
60851;SDS011;48553;50.766;2.900;2023-05-10T07:27:24;20.90;;;8.07;;
60851;SDS011;48553;50.766;2.900;2023-05-10T07:30:25;18.65;;;7.90;;
60851;SDS011;48553;50.766;2.900;2023-05-10T07:33:25;19.45;;;8.43;;
60851;SDS011;48553;50.766;2.900;2023-05-10T07:36:25;19.98;;;8.27;;
60851;SDS011;48553;50.766;2.900;2023-05-10T07:39:26;16.92;;;8.15;;
60851;SDS011;48553;50.766;2.900;2023-05-10T07:42:27;20.27;;;8.20;;
60851;SDS011;48553;50.766;2.900;2023-05-10T07:45:28;22.15;;;8.55;;
60851;SDS011;48553;50.766;2.900;2023-05-10T07:48:28;21.23;;;8.63;;
60851;SDS011;48553;50.766;2.900;2023-05-10T07:51:29;19.13;;;7.88;;
60851;SDS011;48553;50.766;2.900;2023-05-10T07:54:29;18.98;;;7.88;;
60851;SDS011;48553;50.766;2.900;2023-05-10T07:57:30;16.00;;;8.05;;
60851;SDS011;48553;50.766;2.900;2023-05-10T08:00:30;21.38;;;8.98;;
60851;SDS011;48553;50.766;2.900;2023-05-10T08:03:31;17.30;;;8.38;;
60851;SDS011;48553;50.766;2.900;2023-05-10T08:06:31;20.42;;;8.02;;
60851;SDS011;48553;50.766;2.900;2023-05-10T08:09:32;16.20;;;8.30;;
60851;SDS011;48553;50.766;2.900;2023-05-10T08:12:32;19.75;;;8.40;;
60851;SDS011;48553;50.766;2.900;2023-05-10T08:15:32;17.48;;;8.60;;
60851;SDS011;48553;50.766;2.900;2023-05-10T08:18:33;19.48;;;8.50;;
60851;SDS011;48553;50.766;2.900;2023-05-10T08:21:33;16.08;;;8.50;;
60851;SDS011;48553;50.766;2.900;2023-05-10T08:24:34;23.10;;;8.43;;
60851;SDS011;48553;50.766;2.900;2023-05-10T08:27:38;19.52;;;9.30;;
60851;SDS011;48553;50.766;2.900;2023-05-10T08:30:39;20.80;;;8.55;;
60851;SDS011;48553;50.766;2.900;2023-05-10T08:33:40;19.40;;;9.10;;
60851;SDS011;48553;50.766;2.900;2023-05-10T08:36:40;22.05;;;9.05;;
60851;SDS011;48553;50.766;2.900;2023-05-10T08:39:40;19.35;;;9.18;;
60851;SDS011;48553;50.766;2.900;2023-05-10T08:42:43;18.90;;;9.38;;
60851;SDS011;48553;50.766;2.900;2023-05-10T08:45:51;22.38;;;9.80;;
60851;SDS011;48553;50.766;2.900;2023-05-10T08:48:54;22.77;;;10.65;;
60851;SDS011;48553;50.766;2.900;2023-05-10T08:51:55;20.55;;;10.13;;
60851;SDS011;48553;50.766;2.900;2023-05-10T08:54:57;19.05;;;10.25;;
60851;SDS011;48553;50.766;2.900;2023-05-10T08:57:58;18.77;;;9.65;;
60851;SDS011;48553;50.766;2.900;2023-05-10T09:00:59;22.15;;;10.70;;
60851;SDS011;48553;50.766;2.900;2023-05-10T09:04:01;22.50;;;11.43;;
60851;SDS011;48553;50.766;2.900;2023-05-10T09:07:02;20.95;;;11.00;;
60851;SDS011;48553;50.766;2.900;2023-05-10T09:10:04;19.50;;;10.95;;
60851;SDS011;48553;50.766;2.900;2023-05-10T09:13:06;20.40;;;11.65;;
60851;SDS011;48553;50.766;2.900;2023-05-10T09:16:09;21.50;;;11.90;;
60851;SDS011;48553;50.766;2.900;2023-05-10T09:19:10;23.35;;;11.90;;
60851;SDS011;48553;50.766;2.900;2023-05-10T09:22:10;24.02;;;12.13;;
60851;SDS011;48553;50.766;2.900;2023-05-10T09:28:12;21.92;;;11.20;;
60851;SDS011;48553;50.766;2.900;2023-05-10T09:31:12;22.92;;;11.80;;
60851;SDS011;48553;50.766;2.900;2023-05-10T09:34:19;22.35;;;11.32;;
60851;SDS011;48553;50.766;2.900;2023-05-10T09:37:28;21.13;;;11.68;;
60851;SDS011;48553;50.766;2.900;2023-05-10T09:40:30;20.70;;;11.30;;
60851;SDS011;48553;50.766;2.900;2023-05-10T09:43:37;21.33;;;11.55;;
60851;SDS011;48553;50.766;2.900;2023-05-10T09:46:38;20.88;;;11.32;;
60851;SDS011;48553;50.766;2.900;2023-05-10T09:49:38;18.88;;;11.63;;
60851;SDS011;48553;50.766;2.900;2023-05-10T09:52:48;20.98;;;11.45;;
60851;SDS011;48553;50.766;2.900;2023-05-10T09:55:53;20.10;;;11.63;;
60851;SDS011;48553;50.766;2.900;2023-05-10T09:59:01;21.65;;;11.40;;
60851;SDS011;48553;50.766;2.900;2023-05-10T10:02:02;20.02;;;11.10;;
60851;SDS011;48553;50.766;2.900;2023-05-10T10:05:03;21.42;;;11.27;;
60851;SDS011;48553;50.766;2.900;2023-05-10T10:08:06;17.17;;;10.23;;
60851;SDS011;48553;50.766;2.900;2023-05-10T10:11:06;20.05;;;11.07;;
60851;SDS011;48553;50.766;2.900;2023-05-10T10:14:07;18.50;;;10.90;;
60851;SDS011;48553;50.766;2.900;2023-05-10T10:17:08;20.27;;;11.48;;
60851;SDS011;48553;50.766;2.900;2023-05-10T10:20:09;21.23;;;11.90;;
60851;SDS011;48553;50.766;2.900;2023-05-10T10:23:10;21.50;;;12.20;;
60851;SDS011;48553;50.766;2.900;2023-05-10T10:26:10;20.85;;;12.13;;
60851;SDS011;48553;50.766;2.900;2023-05-10T10:32:27;21.92;;;13.30;;
60851;SDS011;48553;50.766;2.900;2023-05-10T10:35:35;22.17;;;12.67;;
60851;SDS011;48553;50.766;2.900;2023-05-10T10:38:37;21.38;;;12.95;;
60851;SDS011;48553;50.766;2.900;2023-05-10T10:41:57;23.15;;;12.70;;
60851;SDS011;48553;50.766;2.900;2023-05-10T10:45:19;24.60;;;13.38;;
60851;SDS011;48553;50.766;2.900;2023-05-10T10:48:22;23.92;;;13.30;;
60851;SDS011;48553;50.766;2.900;2023-05-10T10:51:23;26.60;;;13.82;;
60851;SDS011;48553;50.766;2.900;2023-05-10T10:54:27;22.17;;;13.40;;
60851;SDS011;48553;50.766;2.900;2023-05-10T10:57:30;20.67;;;13.27;;
60851;SDS011;48553;50.766;2.900;2023-05-10T11:00:32;19.37;;;13.10;;
60851;SDS011;48553;50.766;2.900;2023-05-10T11:03:35;19.80;;;11.65;;
60851;SDS011;48553;50.766;2.900;2023-05-10T11:06:36;19.40;;;11.68;;
60851;SDS011;48553;50.766;2.900;2023-05-10T11:09:39;20.55;;;12.57;;
60851;SDS011;48553;50.766;2.900;2023-05-10T11:12:50;24.05;;;12.95;;
60851;SDS011;48553;50.766;2.900;2023-05-10T11:16:11;24.23;;;13.68;;
60851;SDS011;48553;50.766;2.900;2023-05-10T11:19:13;27.98;;;18.48;;
60851;SDS011;48553;50.766;2.900;2023-05-10T11:22:15;17.45;;;11.90;;
60851;SDS011;48553;50.766;2.900;2023-05-10T11:25:17;22.35;;;12.05;;
60851;SDS011;48553;50.766;2.900;2023-05-10T11:28:17;20.35;;;12.60;;
60851;SDS011;48553;50.766;2.900;2023-05-10T11:31:19;16.98;;;11.45;;
60851;SDS011;48553;50.766;2.900;2023-05-10T11:34:27;16.15;;;10.02;;
60851;SDS011;48553;50.766;2.900;2023-05-10T11:37:33;12.52;;;8.48;;
60851;SDS011;48553;50.766;2.900;2023-05-10T11:40:34;13.32;;;6.75;;
60851;SDS011;48553;50.766;2.900;2023-05-10T11:43:35;10.48;;;5.53;;
60851;SDS011;48553;50.766;2.900;2023-05-10T11:46:38;11.60;;;5.70;;
60851;SDS011;48553;50.766;2.900;2023-05-10T11:49:38;8.35;;;4.15;;
60851;SDS011;48553;50.766;2.900;2023-05-10T11:52:39;10.40;;;3.80;;
60851;SDS011;48553;50.766;2.900;2023-05-10T11:55:39;8.50;;;3.47;;
60851;SDS011;48553;50.766;2.900;2023-05-10T11:58:40;5.85;;;2.58;;
60851;SDS011;48553;50.766;2.900;2023-05-10T12:01:41;6.68;;;2.83;;
60851;SDS011;48553;50.766;2.900;2023-05-10T12:04:41;9.23;;;3.05;;
60851;SDS011;48553;50.766;2.900;2023-05-10T12:07:42;7.03;;;2.72;;
60851;SDS011;48553;50.766;2.900;2023-05-10T12:10:42;6.32;;;2.90;;
60851;SDS011;48553;50.766;2.900;2023-05-10T12:13:43;7.32;;;3.17;;
60851;SDS011;48553;50.766;2.900;2023-05-10T12:16:47;7.25;;;2.85;;
60851;SDS011;48553;50.766;2.900;2023-05-10T12:19:48;8.10;;;3.50;;
60851;SDS011;48553;50.766;2.900;2023-05-10T12:22:49;7.40;;;2.90;;
60851;SDS011;48553;50.766;2.900;2023-05-10T12:25:51;7.78;;;2.90;;
60851;SDS011;48553;50.766;2.900;2023-05-10T12:28:54;6.07;;;2.22;;
60851;SDS011;48553;50.766;2.900;2023-05-10T12:31:58;5.60;;;2.45;;
60851;SDS011;48553;50.766;2.900;2023-05-10T12:35:00;6.45;;;2.53;;
60851;SDS011;48553;50.766;2.900;2023-05-10T12:38:00;5.50;;;2.10;;
60851;SDS011;48553;50.766;2.900;2023-05-10T12:41:01;5.65;;;1.85;;
60851;SDS011;48553;50.766;2.900;2023-05-10T12:44:03;7.80;;;2.08;;
60851;SDS011;48553;50.766;2.900;2023-05-10T12:47:03;3.83;;;1.55;;
60851;SDS011;48553;50.766;2.900;2023-05-10T12:50:04;4.72;;;1.60;;
60851;SDS011;48553;50.766;2.900;2023-05-10T12:53:05;3.83;;;1.60;;
60851;SDS011;48553;50.766;2.900;2023-05-10T12:56:05;5.65;;;1.75;;
60851;SDS011;48553;50.766;2.900;2023-05-10T12:59:06;5.13;;;1.60;;
60851;SDS011;48553;50.766;2.900;2023-05-10T13:02:06;4.65;;;1.38;;
60851;SDS011;48553;50.766;2.900;2023-05-10T13:05:08;4.40;;;1.50;;
60851;SDS011;48553;50.766;2.900;2023-05-10T13:08:08;4.88;;;1.52;;
60851;SDS011;48553;50.766;2.900;2023-05-10T13:11:09;5.68;;;1.60;;
60851;SDS011;48553;50.766;2.900;2023-05-10T13:14:09;4.55;;;1.40;;
60851;SDS011;48553;50.766;2.900;2023-05-10T13:17:10;7.30;;;1.38;;
60851;SDS011;48553;50.766;2.900;2023-05-10T13:20:10;5.85;;;1.40;;
60851;SDS011;48553;50.766;2.900;2023-05-10T13:23:11;4.60;;;1.50;;
60851;SDS011;48553;50.766;2.900;2023-05-10T13:26:11;4.18;;;1.25;;
60851;SDS011;48553;50.766;2.900;2023-05-10T13:29:12;3.22;;;1.10;;
60851;SDS011;48553;50.766;2.900;2023-05-10T13:32:12;5.28;;;1.27;;
60851;SDS011;48553;50.766;2.900;2023-05-10T13:35:13;5.15;;;1.00;;
60851;SDS011;48553;50.766;2.900;2023-05-10T13:38:13;5.22;;;1.27;;
60851;SDS011;48553;50.766;2.900;2023-05-10T13:41:14;3.58;;;0.90;;
60851;SDS011;48553;50.766;2.900;2023-05-10T13:44:14;4.50;;;1.05;;
60851;SDS011;48553;50.766;2.900;2023-05-10T13:47:15;4.35;;;1.13;;
60851;SDS011;48553;50.766;2.900;2023-05-10T13:50:16;5.38;;;1.17;;
60851;SDS011;48553;50.766;2.900;2023-05-10T13:53:17;5.78;;;1.33;;
60851;SDS011;48553;50.766;2.900;2023-05-10T13:56:17;5.60;;;1.30;;
60851;SDS011;48553;50.766;2.900;2023-05-10T13:59:17;6.22;;;1.55;;
60851;SDS011;48553;50.766;2.900;2023-05-10T14:02:18;5.97;;;1.38;;
60851;SDS011;48553;50.766;2.900;2023-05-10T14:05:18;4.15;;;1.23;;
60851;SDS011;48553;50.766;2.900;2023-05-10T14:08:19;4.20;;;1.40;;
60851;SDS011;48553;50.766;2.900;2023-05-10T14:11:20;4.50;;;1.45;;
60851;SDS011;48553;50.766;2.900;2023-05-10T14:14:20;5.35;;;1.70;;
60851;SDS011;48553;50.766;2.900;2023-05-10T14:17:21;6.45;;;1.40;;
60851;SDS011;48553;50.766;2.900;2023-05-10T14:20:22;5.70;;;1.50;;
60851;SDS011;48553;50.766;2.900;2023-05-10T14:23:22;4.68;;;1.63;;
60851;SDS011;48553;50.766;2.900;2023-05-10T14:26:26;10.40;;;2.17;;
60851;SDS011;48553;50.766;2.900;2023-05-10T14:29:27;5.50;;;1.75;;
60851;SDS011;48553;50.766;2.900;2023-05-10T14:32:27;6.25;;;1.70;;
60851;SDS011;48553;50.766;2.900;2023-05-10T14:35:28;6.95;;;1.63;;
60851;SDS011;48553;50.766;2.900;2023-05-10T14:38:30;6.40;;;1.63;;
60851;SDS011;48553;50.766;2.900;2023-05-10T14:41:31;4.95;;;1.83;;
60851;SDS011;48553;50.766;2.900;2023-05-10T14:44:31;6.20;;;1.63;;
60851;SDS011;48553;50.766;2.900;2023-05-10T14:47:32;6.50;;;1.70;;
60851;SDS011;48553;50.766;2.900;2023-05-10T14:50:32;6.93;;;1.63;;
60851;SDS011;48553;50.766;2.900;2023-05-10T14:53:32;6.88;;;1.65;;
60851;SDS011;48553;50.766;2.900;2023-05-10T14:56:33;7.50;;;2.70;;
60851;SDS011;48553;50.766;2.900;2023-05-10T14:59:33;7.65;;;2.10;;
60851;SDS011;48553;50.766;2.900;2023-05-10T15:02:34;7.25;;;2.03;;
60851;SDS011;48553;50.766;2.900;2023-05-10T15:05:34;6.35;;;2.40;;
60851;SDS011;48553;50.766;2.900;2023-05-10T15:08:37;5.47;;;2.83;;
60851;SDS011;48553;50.766;2.900;2023-05-10T15:11:37;5.55;;;1.52;;
60851;SDS011;48553;50.766;2.900;2023-05-10T15:14:37;4.35;;;2.40;;
60851;SDS011;48553;50.766;2.900;2023-05-10T15:17:38;10.27;;;4.43;;
60851;SDS011;48553;50.766;2.900;2023-05-10T15:20:38;13.25;;;7.25;;
60851;SDS011;48553;50.766;2.900;2023-05-10T15:23:39;7.18;;;2.40;;
60851;SDS011;48553;50.766;2.900;2023-05-10T15:26:39;5.78;;;2.95;;
60851;SDS011;48553;50.766;2.900;2023-05-10T15:29:40;19.67;;;15.70;;
60851;SDS011;48553;50.766;2.900;2023-05-10T15:32:40;12.77;;;8.30;;
60851;SDS011;48553;50.766;2.900;2023-05-10T15:35:41;11.15;;;3.90;;
60851;SDS011;48553;50.766;2.900;2023-05-10T15:38:41;7.70;;;2.70;;
60851;SDS011;48553;50.766;2.900;2023-05-10T15:41:42;10.00;;;5.30;;
60851;SDS011;48553;50.766;2.900;2023-05-10T15:44:42;6.05;;;2.63;;
60851;SDS011;48553;50.766;2.900;2023-05-10T15:47:44;16.30;;;11.63;;
60851;SDS011;48553;50.766;2.900;2023-05-10T15:50:45;5.35;;;2.50;;
60851;SDS011;48553;50.766;2.900;2023-05-10T15:53:45;8.95;;;2.70;;
60851;SDS011;48553;50.766;2.900;2023-05-10T15:56:46;8.88;;;3.17;;
60851;SDS011;48553;50.766;2.900;2023-05-10T15:59:47;9.65;;;2.83;;
60851;SDS011;48553;50.766;2.900;2023-05-10T16:02:47;10.50;;;2.92;;
60851;SDS011;48553;50.766;2.900;2023-05-10T16:05:48;8.82;;;2.88;;
60851;SDS011;48553;50.766;2.900;2023-05-10T16:08:48;6.55;;;2.45;;
60851;SDS011;48553;50.766;2.900;2023-05-10T16:11:49;7.47;;;2.63;;
60851;SDS011;48553;50.766;2.900;2023-05-10T16:14:49;8.55;;;2.65;;
60851;SDS011;48553;50.766;2.900;2023-05-10T16:17:51;8.55;;;2.65;;
60851;SDS011;48553;50.766;2.900;2023-05-10T16:20:51;9.38;;;2.50;;
60851;SDS011;48553;50.766;2.900;2023-05-10T16:23:52;6.72;;;2.20;;
60851;SDS011;48553;50.766;2.900;2023-05-10T16:26:53;5.10;;;2.15;;
60851;SDS011;48553;50.766;2.900;2023-05-10T16:29:53;5.68;;;2.08;;
60851;SDS011;48553;50.766;2.900;2023-05-10T16:32:57;5.50;;;2.03;;
60851;SDS011;48553;50.766;2.900;2023-05-10T16:35:59;5.80;;;1.98;;
60851;SDS011;48553;50.766;2.900;2023-05-10T16:38:59;5.65;;;2.10;;
60851;SDS011;48553;50.766;2.900;2023-05-10T16:42:00;4.88;;;2.10;;
60851;SDS011;48553;50.766;2.900;2023-05-10T16:45:00;6.70;;;3.08;;
60851;SDS011;48553;50.766;2.900;2023-05-10T16:48:06;5.18;;;1.73;;
60851;SDS011;48553;50.766;2.900;2023-05-10T16:51:06;8.85;;;4.18;;
60851;SDS011;48553;50.766;2.900;2023-05-10T16:54:08;17.60;;;11.52;;
60851;SDS011;48553;50.766;2.900;2023-05-10T16:57:08;13.27;;;10.05;;
60851;SDS011;48553;50.766;2.900;2023-05-10T17:00:09;8.52;;;5.20;;
60851;SDS011;48553;50.766;2.900;2023-05-10T17:03:11;9.45;;;3.83;;
60851;SDS011;48553;50.766;2.900;2023-05-10T17:06:11;7.25;;;4.63;;
60851;SDS011;48553;50.766;2.900;2023-05-10T17:09:12;8.70;;;2.95;;
60851;SDS011;48553;50.766;2.900;2023-05-10T17:12:13;5.93;;;2.45;;
60851;SDS011;48553;50.766;2.900;2023-05-10T17:15:13;8.52;;;4.05;;
60851;SDS011;48553;50.766;2.900;2023-05-10T17:18:15;8.55;;;3.08;;
60851;SDS011;48553;50.766;2.900;2023-05-10T17:21:16;9.30;;;2.92;;
60851;SDS011;48553;50.766;2.900;2023-05-10T17:24:16;8.75;;;2.28;;
60851;SDS011;48553;50.766;2.900;2023-05-10T17:27:17;9.23;;;2.70;;
60851;SDS011;48553;50.766;2.900;2023-05-10T17:30:17;9.73;;;2.83;;
60851;SDS011;48553;50.766;2.900;2023-05-10T17:33:23;8.25;;;2.58;;
60851;SDS011;48553;50.766;2.900;2023-05-10T17:36:23;10.27;;;2.53;;
60851;SDS011;48553;50.766;2.900;2023-05-10T17:39:24;9.20;;;2.60;;
60851;SDS011;48553;50.766;2.900;2023-05-10T17:42:24;12.63;;;2.30;;
60851;SDS011;48553;50.766;2.900;2023-05-10T17:45:25;10.18;;;2.13;;
60851;SDS011;48553;50.766;2.900;2023-05-10T17:48:25;10.95;;;2.10;;
60851;SDS011;48553;50.766;2.900;2023-05-10T17:51:26;10.20;;;2.20;;
60851;SDS011;48553;50.766;2.900;2023-05-10T17:54:28;9.55;;;2.30;;
60851;SDS011;48553;50.766;2.900;2023-05-10T17:57:28;11.85;;;2.40;;
60851;SDS011;48553;50.766;2.900;2023-05-10T18:00:28;8.75;;;2.10;;
60851;SDS011;48553;50.766;2.900;2023-05-10T18:03:29;13.82;;;2.50;;
60851;SDS011;48553;50.766;2.900;2023-05-10T18:06:29;10.45;;;2.45;;
60851;SDS011;48553;50.766;2.900;2023-05-10T18:09:31;10.57;;;2.60;;
60851;SDS011;48553;50.766;2.900;2023-05-10T18:12:33;11.35;;;2.13;;
60851;SDS011;48553;50.766;2.900;2023-05-10T18:15:33;10.30;;;2.58;;
60851;SDS011;48553;50.766;2.900;2023-05-10T18:18:34;12.88;;;2.70;;
60851;SDS011;48553;50.766;2.900;2023-05-10T18:21:34;8.35;;;2.60;;